LTCK/MSR METAR and TAF weather

Enter ICAO airport designator
Station Type Date Time Source
LTCK METAR 2018/12/13 05:50 UTC NOAA

LTCK 130550Z 00000KT 7000 FEW017 BKN030 BKN070 01/00 Q1017


Station Type Date Time Source
LTCK Decoded METAR 2018/12/13 05:50 UTC NOAA

Mus Tur-Afb , Turkey (LTCK) 38-45N 041-40E
Dec 13, 2018 - 12:50 AM EST / 2018.12.13 0550 UTC
Wind: Calm:0
Visibility: 4 mile(s):0
Sky conditions: mostly cloudy
Temperature: 33 F (1 C)
Dew Point: 32 F (0 C)
Relative Humidity: 93%
Pressure (altimeter): 30.03 in. Hg (1017 hPa)
ob: LTCK 130550Z 00000KT 7000 FEW017 BKN030 BKN070 01/00 Q1017
cycle: 6

Station Type Date Time Source
LTCK TAF UTC NOAA

Error!


Example: see airport list